sensor_id;sensor_type;location;lat;lon;timestamp;pressure;altitude;pressure_sealevel;temperature;humidity
84724;BME280;74944;52.322;16.918;2024-03-06T00:01:54;101318.38;;;0.31;100.00
84724;BME280;74944;52.322;16.918;2024-03-06T00:04:20;101322.56;;;0.27;99.99
84724;BME280;74944;52.322;16.918;2024-03-06T00:06:46;101315.72;;;0.18;100.00
84724;BME280;74944;52.322;16.918;2024-03-06T00:09:12;101332.34;;;0.15;99.94
84724;BME280;74944;52.322;16.918;2024-03-06T00:11:37;101332.38;;;0.08;99.35
84724;BME280;74944;52.322;16.918;2024-03-06T00:14:03;101330.72;;;0.01;99.90
84724;BME280;74944;52.322;16.918;2024-03-06T00:16:31;101340.28;;;-0.03;100.00
84724;BME280;74944;52.322;16.918;2024-03-06T00:18:57;101340.09;;;-0.08;100.00
84724;BME280;74944;52.322;16.918;2024-03-06T00:21:25;101339.28;;;-0.15;100.00
84724;BME280;74944;52.322;16.918;2024-03-06T00:23:50;101340.09;;;-0.14;100.00
84724;BME280;74944;52.322;16.918;2024-03-06T00:26:16;101348.41;;;-0.16;100.00
84724;BME280;74944;52.322;16.918;2024-03-06T00:28:42;101345.28;;;-0.13;100.00
84724;BME280;74944;52.322;16.918;2024-03-06T00:31:08;101350.69;;;-0.13;100.00
84724;BME280;74944;52.322;16.918;2024-03-06T00:33:34;101350.88;;;-0.14;100.00
84724;BME280;74944;52.322;16.918;2024-03-06T00:36:01;101355.06;;;-0.18;100.00
84724;BME280;74944;52.322;16.918;2024-03-06T00:38:27;101360.88;;;-0.21;100.00
84724;BME280;74944;52.322;16.918;2024-03-06T00:40:53;101357.56;;;-0.23;100.00
84724;BME280;74944;52.322;16.918;2024-03-06T00:43:18;101364.63;;;-0.22;100.00
84724;BME280;74944;52.322;16.918;2024-03-06T00:45:45;101364.81;;;-0.24;100.00
84724;BME280;74944;52.322;16.918;2024-03-06T00:48:12;101359.81;;;-0.27;100.00
84724;BME280;74944;52.322;16.918;2024-03-06T00:50:38;101363.78;;;-0.29;100.00
84724;BME280;74944;52.322;16.918;2024-03-06T00:53:05;101371.25;;;-0.31;100.00
84724;BME280;74944;52.322;16.918;2024-03-06T00:55:31;101356.31;;;-0.34;100.00
84724;BME280;74944;52.322;16.918;2024-03-06T00:57:57;101368.97;;;-0.34;100.00
84724;BME280;74944;52.322;16.918;2024-03-06T01:00:22;101375.19;;;-0.34;100.00
84724;BME280;74944;52.322;16.918;2024-03-06T01:02:48;101377.47;;;-0.31;100.00
84724;BME280;74944;52.322;16.918;2024-03-06T01:05:14;101370.63;;;-0.33;100.00
84724;BME280;74944;52.322;16.918;2024-03-06T01:07:40;101375.19;;;-0.34;100.00
84724;BME280;74944;52.322;16.918;2024-03-06T01:10:06;101385.38;;;-0.36;100.00
84724;BME280;74944;52.322;16.918;2024-03-06T01:12:35;101381.63;;;-0.41;100.00
84724;BME280;74944;52.322;16.918;2024-03-06T01:15:01;101386.19;;;-0.41;100.00
84724;BME280;74944;52.322;16.918;2024-03-06T01:17:27;101393.25;;;-0.40;100.00
84724;BME280;74944;52.322;16.918;2024-03-06T01:19:52;101394.28;;;-0.41;100.00
84724;BME280;74944;52.322;16.918;2024-03-06T01:22:18;101389.09;;;-0.43;100.00
84724;BME280;74944;52.322;16.918;2024-03-06T01:24:44;101387.00;;;-0.41;100.00
84724;BME280;74944;52.322;16.918;2024-03-06T01:27:10;101389.72;;;-0.35;100.00
84724;BME280;74944;52.322;16.918;2024-03-06T01:29:35;101387.25;;;-0.30;100.00
84724;BME280;74944;52.322;16.918;2024-03-06T01:32:01;101394.50;;;-0.24;100.00
84724;BME280;74944;52.322;16.918;2024-03-06T01:34:28;101391.34;;;-0.14;100.00
84724;BME280;74944;52.322;16.918;2024-03-06T01:36:55;101390.31;;;-0.07;100.00
84724;BME280;74944;52.322;16.918;2024-03-06T01:39:22;101398.19;;;0.01;100.00
84724;BME280;74944;52.322;16.918;2024-03-06T01:41:49;101401.09;;;0.12;100.00
84724;BME280;74944;52.322;16.918;2024-03-06T01:44:16;101402.72;;;0.20;100.00
84724;BME280;74944;52.322;16.918;2024-03-06T01:46:46;101408.94;;;0.33;100.00
84724;BME280;74944;52.322;16.918;2024-03-06T01:49:12;101411.19;;;0.42;100.00
84724;BME280;74944;52.322;16.918;2024-03-06T01:51:40;101403.47;;;0.52;100.00
84724;BME280;74944;52.322;16.918;2024-03-06T01:54:06;101413.00;;;0.61;100.00
84724;BME280;74944;52.322;16.918;2024-03-06T01:56:33;101416.69;;;0.73;100.00
84724;BME280;74944;52.322;16.918;2024-03-06T01:59:00;101408.38;;;0.74;100.00
84724;BME280;74944;52.322;16.918;2024-03-06T02:01:32;101409.00;;;0.76;100.00
84724;BME280;74944;52.322;16.918;2024-03-06T02:03:58;101408.78;;;0.78;100.00
84724;BME280;74944;52.322;16.918;2024-03-06T02:06:25;101412.50;;;0.77;100.00
84724;BME280;74944;52.322;16.918;2024-03-06T02:08:51;101408.38;;;0.74;100.00
84724;BME280;74944;52.322;16.918;2024-03-06T02:11:18;101412.50;;;0.77;100.00
84724;BME280;74944;52.322;16.918;2024-03-06T02:13:43;101410.44;;;0.79;100.00
84724;BME280;74944;52.322;16.918;2024-03-06T02:16:10;101416.03;;;0.84;100.00
84724;BME280;74944;52.322;16.918;2024-03-06T02:18:36;101417.44;;;0.93;100.00
84724;BME280;74944;52.322;16.918;2024-03-06T02:21:03;101412.84;;;1.00;100.00
84724;BME280;74944;52.322;16.918;2024-03-06T02:23:30;101415.31;;;1.07;100.00
84724;BME280;74944;52.322;16.918;2024-03-06T02:25:56;101413.38;;;1.14;100.00
84724;BME280;74944;52.322;16.918;2024-03-06T02:28:22;101413.13;;;1.22;100.00
84724;BME280;74944;52.322;16.918;2024-03-06T02:30:51;101408.13;;;1.26;100.00
84724;BME280;74944;52.322;16.918;2024-03-06T02:33:17;101408.69;;;1.28;100.00
84724;BME280;74944;52.322;16.918;2024-03-06T02:35:44;101413.84;;;1.36;100.00
84724;BME280;74944;52.322;16.918;2024-03-06T02:38:11;101408.03;;;1.39;100.00
84724;BME280;74944;52.322;16.918;2024-03-06T02:40:37;101409.66;;;1.40;100.00
84724;BME280;74944;52.322;16.918;2024-03-06T02:43:02;101419.25;;;1.36;100.00
84724;BME280;74944;52.322;16.918;2024-03-06T02:45:30;101414.91;;;1.35;100.00
84724;BME280;74944;52.322;16.918;2024-03-06T02:47:55;101419.06;;;1.37;100.00
84724;BME280;74944;52.322;16.918;2024-03-06T02:50:21;101406.41;;;1.31;100.00
84724;BME280;74944;52.322;16.918;2024-03-06T02:52:49;101410.59;;;1.27;100.00
84724;BME280;74944;52.322;16.918;2024-03-06T02:55:17;101403.34;;;1.21;100.00
84724;BME280;74944;52.322;16.918;2024-03-06T02:57:43;101411.69;;;1.20;100.00
84724;BME280;74944;52.322;16.918;2024-03-06T03:00:10;101415.69;;;1.11;100.00
84724;BME280;74944;52.322;16.918;2024-03-06T03:02:39;101418.63;;;1.03;100.00
84724;BME280;74944;52.322;16.918;2024-03-06T03:05:05;101415.56;;;0.93;100.00
84724;BME280;74944;52.322;16.918;2024-03-06T03:07:31;101422.47;;;0.89;100.00
84724;BME280;74944;52.322;16.918;2024-03-06T03:09:57;101422.69;;;0.88;100.00
84724;BME280;74944;52.322;16.918;2024-03-06T03:12:23;101423.31;;;0.83;100.00
84724;BME280;74944;52.322;16.918;2024-03-06T03:14:49;101413.56;;;0.76;100.00
84724;BME280;74944;52.322;16.918;2024-03-06T03:17:15;101422.31;;;0.71;100.00
84724;BME280;74944;52.322;16.918;2024-03-06T03:19:41;101419.84;;;0.64;100.00
84724;BME280;74944;52.322;16.918;2024-03-06T03:22:06;101424.22;;;0.58;100.00
84724;BME280;74944;52.322;16.918;2024-03-06T03:24:33;101423.63;;;0.50;100.00
84724;BME280;74944;52.322;16.918;2024-03-06T03:26:59;101424.06;;;0.40;100.00
84724;BME280;74944;52.322;16.918;2024-03-06T03:29:25;101424.31;;;0.33;100.00
84724;BME280;74944;52.322;16.918;2024-03-06T03:31:51;101427.44;;;0.30;100.00
84724;BME280;74944;52.322;16.918;2024-03-06T03:34:19;101421.84;;;0.25;100.00
84724;BME280;74944;52.322;16.918;2024-03-06T03:36:46;101429.94;;;0.18;100.00
84724;BME280;74944;52.322;16.918;2024-03-06T03:39:12;101431.41;;;0.14;100.00
84724;BME280;74944;52.322;16.918;2024-03-06T03:41:45;101428.94;;;0.06;100.00
84724;BME280;74944;52.322;16.918;2024-03-06T03:44:15;101433.09;;;0.02;100.00
84724;BME280;74944;52.322;16.918;2024-03-06T03:46:42;101436.41;;;-0.02;100.00
84724;BME280;74944;52.322;16.918;2024-03-06T03:49:09;101446.78;;;-0.05;100.00
84724;BME280;74944;52.322;16.918;2024-03-06T03:51:38;101449.28;;;-0.10;100.00
84724;BME280;74944;52.322;16.918;2024-03-06T03:54:12;101448.44;;;-0.17;100.00
84724;BME280;74944;52.322;16.918;2024-03-06T03:56:37;101443.47;;;-0.27;100.00
84724;BME280;74944;52.322;16.918;2024-03-06T03:59:03;101445.13;;;-0.26;100.00
84724;BME280;74944;52.322;16.918;2024-03-06T04:01:28;101447.41;;;-0.29;100.00
84724;BME280;74944;52.322;16.918;2024-03-06T04:03:54;101444.09;;;-0.31;100.00
84724;BME280;74944;52.322;16.918;2024-03-06T04:06:20;101449.69;;;-0.33;100.00
84724;BME280;74944;52.322;16.918;2024-03-06T04:08:45;101439.94;;;-0.34;100.00
84724;BME280;74944;52.322;16.918;2024-03-06T04:11:11;101454.44;;;-0.35;100.00
84724;BME280;74944;52.322;16.918;2024-03-06T04:13:38;101448.03;;;-0.40;100.00
84724;BME280;74944;52.322;16.918;2024-03-06T04:16:04;101444.91;;;-0.43;100.00
84724;BME280;74944;52.322;16.918;2024-03-06T04:18:31;101443.47;;;-0.46;100.00
84724;BME280;74944;52.322;16.918;2024-03-06T04:21:06;101444.72;;;-0.42;100.00
84724;BME280;74944;52.322;16.918;2024-03-06T04:23:36;101447.84;;;-0.38;100.00
84724;BME280;74944;52.322;16.918;2024-03-06T04:26:02;101452.59;;;-0.34;100.00
84724;BME280;74944;52.322;16.918;2024-03-06T04:28:31;101446.97;;;-0.39;100.00
84724;BME280;74944;52.322;16.918;2024-03-06T04:30:57;101458.59;;;-0.45;100.00
84724;BME280;74944;52.322;16.918;2024-03-06T04:33:24;101462.34;;;-0.46;100.00
84724;BME280;74944;52.322;16.918;2024-03-06T04:35:50;101456.09;;;-0.53;100.00
84724;BME280;74944;52.322;16.918;2024-03-06T04:38:17;101460.03;;;-0.55;100.00
84724;BME280;74944;52.322;16.918;2024-03-06T04:40:43;101460.44;;;-0.58;100.00
84724;BME280;74944;52.322;16.918;2024-03-06T04:43:09;101462.09;;;-0.64;100.00
84724;BME280;74944;52.322;16.918;2024-03-06T04:45:34;101461.66;;;-0.67;100.00
84724;BME280;74944;52.322;16.918;2024-03-06T04:48:00;101466.41;;;-0.69;100.00
84724;BME280;74944;52.322;16.918;2024-03-06T04:50:27;101469.13;;;-0.69;100.00
84724;BME280;74944;52.322;16.918;2024-03-06T04:52:54;101471.19;;;-0.71;100.00
84724;BME280;74944;52.322;16.918;2024-03-06T04:55:21;101472.44;;;-0.73;100.00
84724;BME280;74944;52.322;16.918;2024-03-06T04:57:48;101466.81;;;-0.78;100.00
84724;BME280;74944;52.322;16.918;2024-03-06T05:00:14;101477.81;;;-0.80;100.00
84724;BME280;74944;52.322;16.918;2024-03-06T05:02:40;101479.25;;;-0.84;100.00
84724;BME280;74944;52.322;16.918;2024-03-06T05:05:07;101486.06;;;-0.88;100.00
84724;BME280;74944;52.322;16.918;2024-03-06T05:07:34;101492.69;;;-0.90;100.00
84724;BME280;74944;52.322;16.918;2024-03-06T05:10:00;101490.41;;;-0.93;100.00
84724;BME280;74944;52.322;16.918;2024-03-06T05:12:26;101498.69;;;-0.95;100.00
84724;BME280;74944;52.322;16.918;2024-03-06T05:14:53;101494.56;;;-0.97;100.00
84724;BME280;74944;52.322;16.918;2024-03-06T05:17:20;101498.88;;;-0.96;100.00
84724;BME280;74944;52.322;16.918;2024-03-06T05:19:47;101499.94;;;-0.97;100.00
84724;BME280;74944;52.322;16.918;2024-03-06T05:22:15;101497.44;;;-0.99;100.00
84724;BME280;74944;52.322;16.918;2024-03-06T05:24:42;101505.28;;;-1.04;100.00
84724;BME280;74944;52.322;16.918;2024-03-06T05:27:10;101505.50;;;-1.05;100.00
84724;BME280;74944;52.322;16.918;2024-03-06T05:29:44;101511.53;;;-0.97;100.00
84724;BME280;74944;52.322;16.918;2024-03-06T05:32:10;101508.28;;;-0.79;100.00
84724;BME280;74944;52.322;16.918;2024-03-06T05:34:35;101505.81;;;-0.74;100.00
84724;BME280;74944;52.322;16.918;2024-03-06T05:37:02;101507.69;;;-0.75;100.00
84724;BME280;74944;52.322;16.918;2024-03-06T05:39:31;101498.75;;;-0.82;100.00
84724;BME280;74944;52.322;16.918;2024-03-06T05:42:07;101512.63;;;-0.85;100.00
84724;BME280;74944;52.322;16.918;2024-03-06T05:44:33;101505.97;;;-0.89;100.00
84724;BME280;74944;52.322;16.918;2024-03-06T05:47:01;101505.13;;;-0.89;100.00
84724;BME280;74944;52.322;16.918;2024-03-06T05:49:28;101507.22;;;-0.91;100.00
84724;BME280;74944;52.322;16.918;2024-03-06T05:51:54;101499.97;;;-0.91;100.00
84724;BME280;74944;52.322;16.918;2024-03-06T05:54:21;101511.38;;;-0.89;100.00
84724;BME280;74944;52.322;16.918;2024-03-06T05:56:48;101511.38;;;-0.82;100.00
84724;BME280;74944;52.322;16.918;2024-03-06T05:59:15;101508.72;;;-0.76;100.00
84724;BME280;74944;52.322;16.918;2024-03-06T06:01:41;101511.44;;;-0.70;100.00
84724;BME280;74944;52.322;16.918;2024-03-06T06:04:08;101512.50;;;-0.64;100.00
84724;BME280;74944;52.322;16.918;2024-03-06T06:06:37;101503.16;;;-0.62;100.00
84724;BME280;74944;52.322;16.918;2024-03-06T06:09:03;101517.69;;;-0.56;100.00
84724;BME280;74944;52.322;16.918;2024-03-06T06:11:32;101508.56;;;-0.55;100.00
84724;BME280;74944;52.322;16.918;2024-03-06T06:14:01;101511.88;;;-0.53;100.00
84724;BME280;74944;52.322;16.918;2024-03-06T06:16:34;101516.66;;;-0.49;100.00
84724;BME280;74944;52.322;16.918;2024-03-06T06:19:01;101516.06;;;-0.44;100.00
84724;BME280;74944;52.322;16.918;2024-03-06T06:21:26;101516.28;;;-0.39;100.00
84724;BME280;74944;52.322;16.918;2024-03-06T06:23:52;101526.06;;;-0.32;100.00
84724;BME280;74944;52.322;16.918;2024-03-06T06:26:18;101526.88;;;-0.25;100.00
84724;BME280;74944;52.322;16.918;2024-03-06T06:28:44;101527.31;;;-0.15;100.00
84724;BME280;74944;52.322;16.918;2024-03-06T06:31:12;101524.00;;;-0.04;100.00
84724;BME280;74944;52.322;16.918;2024-03-06T06:33:38;101522.78;;;0.11;100.00
84724;BME280;74944;52.322;16.918;2024-03-06T06:36:04;101521.75;;;0.31;100.00
84724;BME280;74944;52.322;16.918;2024-03-06T06:38:30;101522.75;;;0.36;100.00
84724;BME280;74944;52.322;16.918;2024-03-06T06:40:56;101531.09;;;0.41;100.00
84724;BME280;74944;52.322;16.918;2024-03-06T06:43:21;101532.75;;;0.49;100.00
84724;BME280;74944;52.322;16.918;2024-03-06T06:45:47;101527.94;;;0.57;100.00
84724;BME280;74944;52.322;16.918;2024-03-06T06:48:17;101522.31;;;0.65;100.00
84724;BME280;74944;52.322;16.918;2024-03-06T06:50:44;101524.34;;;0.82;100.00
84724;BME280;74944;52.322;16.918;2024-03-06T06:53:10;101529.94;;;0.94;100.00
84724;BME280;74944;52.322;16.918;2024-03-06T06:55:36;101533.03;;;1.04;100.00
84724;BME280;74944;52.322;16.918;2024-03-06T06:58:01;101538.81;;;1.13;100.00
84724;BME280;74944;52.322;16.918;2024-03-06T07:00:27;101544.19;;;1.26;100.00
84724;BME280;74944;52.322;16.918;2024-03-06T07:02:55;101536.84;;;1.33;100.00
84724;BME280;74944;52.322;16.918;2024-03-06T07:05:24;101539.50;;;1.46;100.00
84724;BME280;74944;52.322;16.918;2024-03-06T07:07:50;101532.34;;;1.58;100.00
84724;BME280;74944;52.322;16.918;2024-03-06T07:10:16;101536.25;;;1.68;100.00
84724;BME280;74944;52.322;16.918;2024-03-06T07:12:41;101535.94;;;1.82;100.00
84724;BME280;74944;52.322;16.918;2024-03-06T07:15:08;101538.59;;;1.95;100.00
84724;BME280;74944;52.322;16.918;2024-03-06T07:17:35;101541.41;;;2.07;100.00
84724;BME280;74944;52.322;16.918;2024-03-06T07:20:01;101536.13;;;2.18;100.00
84724;BME280;74944;52.322;16.918;2024-03-06T07:22:30;101547.91;;;2.30;100.00
84724;BME280;74944;52.322;16.918;2024-03-06T07:24:56;101547.19;;;2.41;100.00
84724;BME280;74944;52.322;16.918;2024-03-06T07:27:22;101548.59;;;2.49;100.00
84724;BME280;74944;52.322;16.918;2024-03-06T07:29:48;101559.09;;;2.64;100.00
84724;BME280;74944;52.322;16.918;2024-03-06T07:32:14;101550.81;;;2.77;100.00
84724;BME280;74944;52.322;16.918;2024-03-06T07:34:40;101543.63;;;2.88;100.00
84724;BME280;74944;52.322;16.918;2024-03-06T07:37:05;101544.88;;;3.04;100.00
84724;BME280;74944;52.322;16.918;2024-03-06T07:39:31;101542.94;;;3.11;99.80
84724;BME280;74944;52.322;16.918;2024-03-06T07:41:57;101547.63;;;3.21;99.52
84724;BME280;74944;52.322;16.918;2024-03-06T07:44:23;101538.88;;;3.19;98.80
84724;BME280;74944;52.322;16.918;2024-03-06T07:46:49;101547.31;;;3.29;98.93
84724;BME280;74944;52.322;16.918;2024-03-06T07:49:14;101534.03;;;3.39;99.22
84724;BME280;74944;52.322;16.918;2024-03-06T07:51:40;101549.03;;;3.42;98.26
84724;BME280;74944;52.322;16.918;2024-03-06T07:54:09;101561.84;;;3.53;98.55
84724;BME280;74944;52.322;16.918;2024-03-06T07:56:34;101572.16;;;3.62;97.98
84724;BME280;74944;52.322;16.918;2024-03-06T07:59:00;101574.97;;;3.73;98.95
84724;BME280;74944;52.322;16.918;2024-03-06T08:01:27;101574.75;;;3.86;99.44
84724;BME280;74944;52.322;16.918;2024-03-06T08:03:54;101571.50;;;3.95;98.46
84724;BME280;74944;52.322;16.918;2024-03-06T08:06:20;101569.41;;;4.09;98.45
84724;BME280;74944;52.322;16.918;2024-03-06T08:08:46;101577.13;;;4.23;98.21
84724;BME280;74944;52.322;16.918;2024-03-06T08:11:13;101566.91;;;4.36;97.75
84724;BME280;74944;52.322;16.918;2024-03-06T08:13:39;101575.66;;;4.50;97.02
84724;BME280;74944;52.322;16.918;2024-03-06T08:16:07;101570.84;;;4.63;96.77
84724;BME280;74944;52.322;16.918;2024-03-06T08:18:34;101574.50;;;4.80;96.27
84724;BME280;74944;52.322;16.918;2024-03-06T08:21:00;101577.59;;;4.94;95.79
84724;BME280;74944;52.322;16.918;2024-03-06T08:23:26;101579.13;;;5.13;95.20
84724;BME280;74944;52.322;16.918;2024-03-06T08:25:55;101576.16;;;5.26;93.97
84724;BME280;74944;52.322;16.918;2024-03-06T08:28:23;101577.31;;;5.41;92.49
84724;BME280;74944;52.322;16.918;2024-03-06T08:30:49;101579.28;;;5.57;92.42
84724;BME280;74944;52.322;16.918;2024-03-06T08:33:17;101576.31;;;5.70;92.55
84724;BME280;74944;52.322;16.918;2024-03-06T08:35:42;101574.97;;;5.84;93.27
84724;BME280;74944;52.322;16.918;2024-03-06T08:38:10;101569.50;;;5.84;91.48
84724;BME280;74944;52.322;16.918;2024-03-06T08:40:35;101570.31;;;5.96;92.63
84724;BME280;74944;52.322;16.918;2024-03-06T08:43:03;101571.09;;;6.07;91.72
84724;BME280;74944;52.322;16.918;2024-03-06T08:45:29;101564.41;;;6.15;92.25
84724;BME280;74944;52.322;16.918;2024-03-06T08:47:54;101562.84;;;6.19;90.79
84724;BME280;74944;52.322;16.918;2024-03-06T08:50:20;101579.81;;;6.21;90.72
84724;BME280;74944;52.322;16.918;2024-03-06T08:52:46;101580.19;;;6.13;89.19
84724;BME280;74944;52.322;16.918;2024-03-06T08:55:12;101577.19;;;6.14;89.51
84724;BME280;74944;52.322;16.918;2024-03-06T08:57:38;101588.06;;;6.26;89.29
84724;BME280;74944;52.322;16.918;2024-03-06T09:00:05;101586.84;;;6.33;89.40
84724;BME280;74944;52.322;16.918;2024-03-06T09:02:38;101584.91;;;6.45;89.16
84724;BME280;74944;52.322;16.918;2024-03-06T09:05:06;101583.00;;;6.62;87.69
84724;BME280;74944;52.322;16.918;2024-03-06T09:07:32;101585.63;;;6.73;87.49
84724;BME280;74944;52.322;16.918;2024-03-06T09:10:04;101587.19;;;6.85;86.65
84724;BME280;74944;52.322;16.918;2024-03-06T09:12:31;101579.44;;;6.94;85.79
84724;BME280;74944;52.322;16.918;2024-03-06T09:14:56;101577.13;;;7.02;83.87
84724;BME280;74944;52.322;16.918;2024-03-06T09:17:22;101570.13;;;7.11;83.24
84724;BME280;74944;52.322;16.918;2024-03-06T09:19:48;101577.47;;;7.27;82.76
84724;BME280;74944;52.322;16.918;2024-03-06T09:22:13;101576.47;;;7.33;80.60
84724;BME280;74944;52.322;16.918;2024-03-06T09:24:39;101574.00;;;7.31;80.34
84724;BME280;74944;52.322;16.918;2024-03-06T09:27:05;101564.88;;;7.26;80.18
84724;BME280;74944;52.322;16.918;2024-03-06T09:29:32;101563.16;;;7.36;80.56
84724;BME280;74944;52.322;16.918;2024-03-06T09:31:57;101571.16;;;7.43;79.58
84724;BME280;74944;52.322;16.918;2024-03-06T09:34:25;101575.66;;;7.32;79.75
84724;BME280;74944;52.322;16.918;2024-03-06T09:36:51;101578.69;;;7.36;81.37
84724;BME280;74944;52.322;16.918;2024-03-06T09:39:18;101578.69;;;7.36;79.89
84724;BME280;74944;52.322;16.918;2024-03-06T09:41:49;101577.44;;;7.43;80.24
84724;BME280;74944;52.322;16.918;2024-03-06T09:44:16;101583.28;;;7.51;79.67
84724;BME280;74944;52.322;16.918;2024-03-06T09:46:47;101582.22;;;7.52;79.06
84724;BME280;74944;52.322;16.918;2024-03-06T09:49:19;101587.75;;;7.57;79.08
84724;BME280;74944;52.322;16.918;2024-03-06T09:51:48;101587.22;;;7.60;79.57
84724;BME280;74944;52.322;16.918;2024-03-06T09:54:19;101588.56;;;7.58;79.65
84724;BME280;74944;52.322;16.918;2024-03-06T09:56:46;101579.31;;;7.59;78.98
84724;BME280;74944;52.322;16.918;2024-03-06T09:59:12;101580.94;;;7.60;78.99
84724;BME280;74944;52.322;16.918;2024-03-06T10:01:41;101586.16;;;7.61;79.23
84724;BME280;74944;52.322;16.918;2024-03-06T10:04:27;101588.84;;;7.56;79.48
84724;BME280;74944;52.322;16.918;2024-03-06T10:06:55;101584.97;;;7.52;79.38
84724;BME280;74944;52.322;16.918;2024-03-06T10:09:20;101594.09;;;7.42;78.81
84724;BME280;74944;52.322;16.918;2024-03-06T10:11:46;101594.66;;;7.43;79.78
84724;BME280;74944;52.322;16.918;2024-03-06T10:14:14;101587.78;;;7.41;79.87
84724;BME280;74944;52.322;16.918;2024-03-06T10:16:57;101593.84;;;7.43;79.69
84724;BME280;74944;52.322;16.918;2024-03-06T10:19:26;101594.09;;;7.42;79.89
84724;BME280;74944;52.322;16.918;2024-03-06T10:21:53;101588.63;;;7.42;79.55
84724;BME280;74944;52.322;16.918;2024-03-06T10:24:20;101587.84;;;7.46;79.65
84724;BME280;74944;52.322;16.918;2024-03-06T10:26:49;101584.38;;;7.50;80.04
84724;BME280;74944;52.322;16.918;2024-03-06T10:29:17;101586.16;;;7.61;79.52
84724;BME280;74944;52.322;16.918;2024-03-06T10:32:02;101583.56;;;7.71;79.12
84724;BME280;74944;52.322;16.918;2024-03-06T10:34:28;101591.19;;;7.69;78.89
84724;BME280;74944;52.322;16.918;2024-03-06T10:36:57;101583.56;;;7.71;79.41
84724;BME280;74944;52.322;16.918;2024-03-06T10:39:23;101598.28;;;7.70;80.37
84724;BME280;74944;52.322;16.918;2024-03-06T10:42:09;101594.56;;;7.76;81.75
84724;BME280;74944;52.322;16.918;2024-03-06T10:44:44;101599.72;;;7.73;81.17
84724;BME280;74944;52.322;16.918;2024-03-06T10:47:15;101590.75;;;7.77;80.01
84724;BME280;74944;52.322;16.918;2024-03-06T10:49:41;101591.75;;;7.71;81.38
84724;BME280;74944;52.322;16.918;2024-03-06T10:52:09;101596.66;;;7.69;82.80
84724;BME280;74944;52.322;16.918;2024-03-06T10:54:35;101600.97;;;7.65;83.82
84724;BME280;74944;52.322;16.918;2024-03-06T10:57:04;101600.75;;;7.67;84.10
84724;BME280;74944;52.322;16.918;2024-03-06T10:59:30;101596.00;;;7.62;84.26
84724;BME280;74944;52.322;16.918;2024-03-06T11:01:57;101599.50;;;7.58;85.43
84724;BME280;74944;52.322;16.918;2024-03-06T11:04:27;101589.78;;;7.45;85.97
84724;BME280;74944;52.322;16.918;2024-03-06T11:07:00;101601.22;;;7.43;85.96
84724;BME280;74944;52.322;16.918;2024-03-06T11:09:27;101595.22;;;7.45;86.79
84724;BME280;74944;52.322;16.918;2024-03-06T11:11:54;101590.59;;;7.46;87.45
84724;BME280;74944;52.322;16.918;2024-03-06T11:14:24;101595.41;;;7.39;88.19
84724;BME280;74944;52.322;16.918;2024-03-06T11:17:01;101595.59;;;7.33;88.73
84724;BME280;74944;52.322;16.918;2024-03-06T11:20:08;101594.50;;;7.34;89.36
84724;BME280;74944;52.322;16.918;2024-03-06T11:22:18;101591.63;;;7.24;90.02
84724;BME280;74944;52.322;16.918;2024-03-06T11:24:44;101592.28;;;7.31;90.28
84724;BME280;74944;52.322;16.918;2024-03-06T11:27:10;101590.56;;;7.25;90.55
84724;BME280;74944;52.322;16.918;2024-03-06T11:30:18;101592.72;;;7.23;91.48
84724;BME280;74944;52.322;16.918;2024-03-06T11:33:00;101591.00;;;7.17;92.22
84724;BME280;74944;52.322;16.918;2024-03-06T11:35:28;101589.66;;;7.19;92.93
84724;BME280;74944;52.322;16.918;2024-03-06T11:37:54;101588.25;;;7.17;92.82
84724;BME280;74944;52.322;16.918;2024-03-06T11:40:24;101592.66;;;7.18;92.69
84724;BME280;74944;52.322;16.918;2024-03-06T11:42:49;101582.31;;;7.20;93.21
84724;BME280;74944;52.322;16.918;2024-03-06T11:45:16;101585.53;;;7.17;92.36
84724;BME280;74944;52.322;16.918;2024-03-06T11:48:01;101583.94;;;7.21;93.01
84724;BME280;74944;52.322;16.918;2024-03-06T11:50:29;101588.59;;;7.20;92.30
84724;BME280;74944;52.322;16.918;2024-03-06T11:52:59;101588.44;;;7.10;92.27
84724;BME280;74944;52.322;16.918;2024-03-06T11:55:25;101591.22;;;7.15;92.83
84724;BME280;74944;52.322;16.918;2024-03-06T11:57:53;101589.59;;;7.14;92.30
84724;BME280;74944;52.322;16.918;2024-03-06T12:00:23;101581.16;;;7.16;93.15
84724;BME280;74944;52.322;16.918;2024-03-06T12:02:56;101581.56;;;7.08;92.71
84724;BME280;74944;52.322;16.918;2024-03-06T12:05:22;101601.53;;;7.08;92.80
84724;BME280;74944;52.322;16.918;2024-03-06T12:07:49;101589.03;;;7.12;92.42
84724;BME280;74944;52.322;16.918;2024-03-06T12:10:17;101591.22;;;7.15;92.61
84724;BME280;74944;52.322;16.918;2024-03-06T12:12:43;101597.28;;;7.17;92.55
84724;BME280;74944;52.322;16.918;2024-03-06T12:15:10;101591.00;;;7.17;92.79
84724;BME280;74944;52.322;16.918;2024-03-06T12:18:03;101599.00;;;7.23;92.55
84724;BME280;74944;52.322;16.918;2024-03-06T12:20:31;101595.97;;;7.20;92.73
84724;BME280;74944;52.322;16.918;2024-03-06T12:22:57;101597.09;;;7.24;92.82
84724;BME280;74944;52.322;16.918;2024-03-06T12:25:25;101594.13;;;7.25;93.25
84724;BME280;74944;52.322;16.918;2024-03-06T12:27:53;101591.72;;;7.29;92.98
84724;BME280;74944;52.322;16.918;2024-03-06T12:30:20;101598.25;;;7.28;92.88
84724;BME280;74944;52.322;16.918;2024-03-06T12:32:59;101585.75;;;7.32;92.69
84724;BME280;74944;52.322;16.918;2024-03-06T12:35:26;101586.16;;;7.24;92.93
84724;BME280;74944;52.322;16.918;2024-03-06T12:37:53;101591.06;;;7.22;93.79
84724;BME280;74944;52.322;16.918;2024-03-06T12:40:19;101585.75;;;7.32;92.85
84724;BME280;74944;52.322;16.918;2024-03-06T12:42:45;101590.72;;;7.35;93.52